createdAt,value
2023-05-08T00:01:28.045Z,2.30
2023-05-08T00:03:58.708Z,2.60
2023-05-08T00:06:29.213Z,2.90
2023-05-08T00:08:59.555Z,2.40
2023-05-08T00:11:29.921Z,3.30
2023-05-08T00:14:00.310Z,3.00
2023-05-08T00:16:30.571Z,3.00
2023-05-08T00:19:00.907Z,2.50
2023-05-08T00:21:32.040Z,2.70
2023-05-08T00:24:02.344Z,2.70
2023-05-08T00:26:32.662Z,3.00
2023-05-08T00:29:04.111Z,2.70
2023-05-08T00:31:36.032Z,3.10
2023-05-08T00:34:07.027Z,2.80
2023-05-08T00:36:37.573Z,3.10
2023-05-08T00:39:07.934Z,2.90
2023-05-08T00:41:38.220Z,2.90
2023-05-08T00:44:08.985Z,2.60
2023-05-08T00:46:39.492Z,3.00
2023-05-08T00:49:14.449Z,3.10
2023-05-08T00:51:47.906Z,3.20
2023-05-08T00:54:18.558Z,3.40
2023-05-08T00:56:50.305Z,2.70
2023-05-08T00:59:23.654Z,3.30
2023-05-08T01:01:54.875Z,3.10
2023-05-08T01:04:27.655Z,3.00
2023-05-08T01:06:58.037Z,3.30
2023-05-08T01:09:28.513Z,3.40
2023-05-08T01:12:16.542Z,3.50
2023-05-08T01:14:58.537Z,3.60
2023-05-08T01:17:39.319Z,3.60
2023-05-08T01:20:20.306Z,3.20
2023-05-08T01:23:18.141Z,3.30
2023-05-08T01:26:12.479Z,3.00
2023-05-08T01:29:06.904Z,3.40
2023-05-08T01:31:51.826Z,3.40
2023-05-08T01:34:25.699Z,4.00
2023-05-08T01:37:02.986Z,3.50
2023-05-08T01:39:40.800Z,3.70
2023-05-08T01:42:19.612Z,4.30
2023-05-08T01:44:54.330Z,4.00
2023-05-08T01:47:29.889Z,3.50
2023-05-08T01:50:07.311Z,3.90
2023-05-08T01:52:47.000Z,3.80
2023-05-08T01:55:25.079Z,4.10
2023-05-08T01:57:58.975Z,3.90
2023-05-08T02:00:29.733Z,3.90
2023-05-08T02:03:03.594Z,4.10
2023-05-08T02:05:36.137Z,4.00
2023-05-08T02:08:08.270Z,3.70
2023-05-08T02:10:40.338Z,4.60
2023-05-08T02:13:14.737Z,3.30
2023-05-08T02:15:46.773Z,4.10
2023-05-08T02:18:19.860Z,4.30
2023-05-08T02:20:52.548Z,4.00
2023-05-08T02:23:26.999Z,5.10
2023-05-08T02:25:58.458Z,4.00
2023-05-08T02:28:30.844Z,4.10
2023-05-08T02:31:02.803Z,4.10
2023-05-08T02:33:33.927Z,4.30
2023-05-08T02:36:05.803Z,5.00
2023-05-08T02:38:42.208Z,5.20
2023-05-08T02:41:14.653Z,5.80
2023-05-08T02:43:46.311Z,3.50
2023-05-08T02:46:21.957Z,4.00
2023-05-08T02:49:01.003Z,4.30
2023-05-08T02:51:47.440Z,4.50
2023-05-08T02:54:29.731Z,3.30
2023-05-08T02:57:04.759Z,4.00
2023-05-08T02:59:41.184Z,4.00
2023-05-08T03:02:16.850Z,4.40
2023-05-08T03:04:54.318Z,4.20
2023-05-08T03:10:03.651Z,4.00
2023-05-08T03:12:38.971Z,3.80
2023-05-08T03:17:47.425Z,5.30
2023-05-08T03:20:20.914Z,4.10
2023-05-08T03:22:54.334Z,4.60
2023-05-08T03:25:27.367Z,4.90
2023-05-08T03:27:59.570Z,6.40
2023-05-08T03:30:30.638Z,5.30
2023-05-08T03:33:07.445Z,4.80
2023-05-08T03:35:39.674Z,4.10
2023-05-08T03:38:11.841Z,4.20
2023-05-08T03:40:43.916Z,5.80
2023-05-08T03:43:16.726Z,5.20
2023-05-08T03:45:48.569Z,4.80
2023-05-08T03:48:22.541Z,5.80
2023-05-08T03:50:53.140Z,4.50
2023-05-08T03:53:23.718Z,4.60
2023-05-08T03:55:54.021Z,4.60
2023-05-08T03:58:29.792Z,6.10
2023-05-08T04:01:08.966Z,5.10
2023-05-08T04:03:55.804Z,5.40
2023-05-08T04:06:42.156Z,5.90
2023-05-08T04:09:25.851Z,5.20
2023-05-08T04:12:04.960Z,5.20
2023-05-08T04:14:44.195Z,4.70
2023-05-08T04:19:53.422Z,4.20
2023-05-08T04:22:27.208Z,4.70
2023-05-08T04:25:02.434Z,4.70
2023-05-08T04:27:34.133Z,3.10
2023-05-08T04:30:06.865Z,3.20
2023-05-08T04:32:40.943Z,4.30
2023-05-08T04:35:13.964Z,4.10
2023-05-08T04:37:45.227Z,4.00
2023-05-08T04:40:16.383Z,4.10
2023-05-08T04:42:48.100Z,4.10
2023-05-08T04:45:21.365Z,3.30
2023-05-08T04:47:52.519Z,4.00
2023-05-08T04:50:23.189Z,3.60
2023-05-08T04:52:53.732Z,3.90
2023-05-08T04:55:24.309Z,3.80
2023-05-08T04:57:54.836Z,3.90
2023-05-08T05:00:25.516Z,4.10
2023-05-08T05:02:56.378Z,4.40
2023-05-08T05:05:27.409Z,4.50
2023-05-08T05:07:58.328Z,4.50
2023-05-08T05:10:29.063Z,4.30
2023-05-08T05:12:59.725Z,4.70
2023-05-08T05:15:31.657Z,5.80
2023-05-08T05:18:02.126Z,4.20
2023-05-08T05:20:33.668Z,4.60
2023-05-08T05:23:04.130Z,5.00
2023-05-08T05:25:35.637Z,5.30
2023-05-08T05:28:06.806Z,6.40
2023-05-08T05:30:37.387Z,4.90
2023-05-08T05:33:08.024Z,4.50
2023-05-08T05:35:38.945Z,5.00
2023-05-08T05:38:09.881Z,4.40
2023-05-08T05:40:40.275Z,4.90
2023-05-08T05:43:10.676Z,4.60
2023-05-08T05:45:42.166Z,4.70
2023-05-08T05:48:12.575Z,3.80
2023-05-08T05:50:44.289Z,4.40
2023-05-08T05:53:15.347Z,4.10
2023-05-08T05:55:45.659Z,4.00
2023-05-08T05:58:16.913Z,4.40
2023-05-08T06:00:48.358Z,4.40
2023-05-08T06:03:18.864Z,5.10
2023-05-08T06:05:50.498Z,4.40
2023-05-08T06:08:20.839Z,3.70
2023-05-08T06:10:51.600Z,4.40
2023-05-08T06:13:22.025Z,4.00
2023-05-08T06:15:56.533Z,4.80
2023-05-08T06:18:27.738Z,4.60
2023-05-08T06:21:01.565Z,4.40
2023-05-08T06:23:31.969Z,3.90
2023-05-08T06:26:02.263Z,3.90
2023-05-08T06:28:32.620Z,4.20
2023-05-08T06:31:05.371Z,3.50
2023-05-08T06:33:35.809Z,3.70
2023-05-08T06:36:08.936Z,3.20
2023-05-08T06:38:41.592Z,2.70
2023-05-08T06:41:13.387Z,3.00
2023-05-08T06:43:45.503Z,2.90
2023-05-08T06:46:16.049Z,3.30
2023-05-08T06:48:49.001Z,2.70
2023-05-08T06:51:20.002Z,2.90
2023-05-08T06:53:50.338Z,3.40
2023-05-08T06:56:21.182Z,2.90
2023-05-08T06:59:00.907Z,2.60
2023-05-08T07:01:38.539Z,3.00
2023-05-08T07:04:11.511Z,3.30
2023-05-08T07:06:41.911Z,2.70
2023-05-08T07:09:15.856Z,3.30
2023-05-08T07:11:46.471Z,2.70
2023-05-08T07:14:16.850Z,3.10
2023-05-08T07:16:47.210Z,2.80
2023-05-08T07:19:17.546Z,2.50
2023-05-08T07:21:47.932Z,3.50
2023-05-08T07:24:18.628Z,2.80
2023-05-08T07:26:48.990Z,2.40
2023-05-08T07:29:20.372Z,2.30
2023-05-08T07:31:52.057Z,2.20
2023-05-08T07:34:22.394Z,2.70
2023-05-08T07:36:53.021Z,2.20
2023-05-08T07:39:23.285Z,2.60
2023-05-08T07:41:53.694Z,2.00
2023-05-08T07:44:24.146Z,1.80
2023-05-08T07:46:54.506Z,2.60
2023-05-08T07:49:26.190Z,2.30
2023-05-08T07:51:56.553Z,1.90
2023-05-08T07:54:26.903Z,2.00
2023-05-08T07:56:57.270Z,2.00
2023-05-08T07:59:27.557Z,1.70
2023-05-08T08:02:00.673Z,2.20
2023-05-08T08:04:31.071Z,2.20
2023-05-08T08:07:04.347Z,2.70
2023-05-08T08:09:34.661Z,2.60
2023-05-08T08:12:04.961Z,2.40
2023-05-08T08:14:35.246Z,2.80
2023-05-08T08:17:05.642Z,2.60
2023-05-08T08:19:36.085Z,2.30
2023-05-08T08:22:07.262Z,2.30
2023-05-08T08:24:37.677Z,2.50
2023-05-08T08:27:08.462Z,2.30
2023-05-08T08:29:38.893Z,2.50
2023-05-08T08:32:10.890Z,2.50
2023-05-08T08:34:41.249Z,2.00
2023-05-08T08:37:13.243Z,2.20
2023-05-08T08:39:43.605Z,2.70
2023-05-08T08:42:14.850Z,3.40
2023-05-08T08:44:45.450Z,2.40
2023-05-08T08:47:17.979Z,2.30
2023-05-08T08:49:52.108Z,2.50
2023-05-08T08:52:28.333Z,2.60
2023-05-08T08:55:01.110Z,2.20
2023-05-08T08:57:35.291Z,2.40
2023-05-08T09:00:10.091Z,2.70
2023-05-08T09:02:40.533Z,2.20
2023-05-08T09:05:12.466Z,2.50
2023-05-08T09:07:43.911Z,2.20
2023-05-08T09:10:15.930Z,1.90
2023-05-08T09:12:46.381Z,2.10
2023-05-08T09:15:17.065Z,2.50
2023-05-08T09:17:47.535Z,2.60
2023-05-08T09:20:18.577Z,2.70
2023-05-08T09:22:49.908Z,2.70
2023-05-08T09:25:20.358Z,2.90
2023-05-08T09:27:50.777Z,2.40
2023-05-08T09:30:21.176Z,2.40
2023-05-08T09:32:51.578Z,2.20
2023-05-08T09:35:25.955Z,2.40
2023-05-08T09:37:57.403Z,2.80
2023-05-08T09:40:28.751Z,2.80
2023-05-08T09:42:59.796Z,3.00
2023-05-08T09:45:32.248Z,2.30
2023-05-08T09:48:02.851Z,3.10
2023-05-08T09:50:33.595Z,2.80
2023-05-08T09:53:04.022Z,2.70
2023-05-08T09:55:49.068Z,2.30
2023-05-08T09:58:19.409Z,3.60
2023-05-08T10:00:49.883Z,3.00
2023-05-08T10:03:20.305Z,3.50
2023-05-08T10:05:50.712Z,3.60
2023-05-08T10:08:23.317Z,2.70
2023-05-08T10:10:53.647Z,2.80
2023-05-08T10:13:24.068Z,2.80
2023-05-08T10:15:59.192Z,2.70
2023-05-08T10:18:36.514Z,2.90
2023-05-08T10:21:11.515Z,2.70
2023-05-08T10:23:43.492Z,2.50
2023-05-08T10:26:20.114Z,3.40
2023-05-08T10:28:57.854Z,2.40
2023-05-08T10:31:32.179Z,2.40
2023-05-08T10:34:05.053Z,2.60
2023-05-08T10:36:37.118Z,3.10
2023-05-08T10:39:08.314Z,2.80
2023-05-08T10:41:40.091Z,2.70
2023-05-08T10:44:11.740Z,2.50
2023-05-08T10:46:50.242Z,2.80
2023-05-08T10:49:26.743Z,2.80
2023-05-08T10:52:08.466Z,3.40
2023-05-08T10:54:49.659Z,3.20
2023-05-08T10:57:20.052Z,2.60
2023-05-08T10:59:50.405Z,2.40
2023-05-08T11:02:30.297Z,2.30
2023-05-08T11:05:17.301Z,2.60
2023-05-08T11:07:58.390Z,3.10
2023-05-08T11:10:37.239Z,2.60
2023-05-08T11:13:08.369Z,2.70
2023-05-08T11:15:42.954Z,2.40
2023-05-08T11:18:17.572Z,2.70
2023-05-08T11:20:59.128Z,2.70
2023-05-08T11:23:30.449Z,2.60
2023-05-08T11:26:05.561Z,2.40
2023-05-08T11:28:38.751Z,2.90
2023-05-08T11:31:10.269Z,2.30
2023-05-08T11:33:41.327Z,2.90
2023-05-08T11:36:19.190Z,2.60
2023-05-08T11:39:09.384Z,2.80
2023-05-08T11:41:39.955Z,2.20
2023-05-08T11:44:23.617Z,2.60
2023-05-08T11:46:55.820Z,2.20
2023-05-08T11:49:29.822Z,2.30
2023-05-08T11:52:03.716Z,2.10
2023-05-08T11:54:37.424Z,2.30
2023-05-08T11:57:07.720Z,2.60
2023-05-08T11:59:43.628Z,2.70
2023-05-08T12:02:14.020Z,2.10
2023-05-08T12:04:48.353Z,2.30
2023-05-08T12:07:20.651Z,1.90
2023-05-08T12:09:51.534Z,2.00
2023-05-08T12:12:22.169Z,2.20
2023-05-08T12:14:53.490Z,1.50
2023-05-08T12:17:23.929Z,1.90
2023-05-08T12:20:04.381Z,2.10
2023-05-08T12:22:34.924Z,2.00
2023-05-08T12:25:07.636Z,1.50
2023-05-08T12:27:38.678Z,2.00
2023-05-08T12:30:12.218Z,1.90
2023-05-08T12:32:44.439Z,1.50
2023-05-08T12:35:15.963Z,1.80
2023-05-08T12:37:47.491Z,1.70
2023-05-08T12:40:31.476Z,1.90
2023-05-08T12:43:03.668Z,1.80
2023-05-08T12:45:38.668Z,1.70
2023-05-08T12:48:11.166Z,2.00
2023-05-08T12:50:43.317Z,1.60
2023-05-08T12:53:16.011Z,1.50
2023-05-08T12:55:54.716Z,1.60
2023-05-08T12:58:28.261Z,1.40
2023-05-08T13:01:10.000Z,1.40
2023-05-08T13:03:41.276Z,1.80
2023-05-08T13:06:22.356Z,1.50
2023-05-08T13:08:56.829Z,1.00
2023-05-08T13:11:34.501Z,1.50
2023-05-08T13:14:04.870Z,1.70
2023-05-08T13:16:44.695Z,1.30
2023-05-08T13:19:15.700Z,1.60
2023-05-08T13:21:47.889Z,1.10
2023-05-08T13:24:18.279Z,1.30
2023-05-08T13:26:48.608Z,1.50
2023-05-08T13:29:18.979Z,1.30
2023-05-08T13:31:49.319Z,1.40
2023-05-08T13:34:19.735Z,1.30
2023-05-08T13:36:50.528Z,1.50
2023-05-08T13:39:20.798Z,1.30
2023-05-08T13:41:51.090Z,1.10
2023-05-08T13:44:21.970Z,1.30
2023-05-08T13:46:52.403Z,1.20
2023-05-08T13:49:24.368Z,1.30
2023-05-08T13:51:57.095Z,1.30
2023-05-08T13:54:29.204Z,1.50
2023-05-08T13:56:59.675Z,1.20
2023-05-08T13:59:31.318Z,1.70
2023-05-08T14:02:01.946Z,1.50
2023-05-08T14:04:32.305Z,1.20
2023-05-08T14:07:02.840Z,1.10
2023-05-08T14:09:33.208Z,1.20
2023-05-08T14:12:03.518Z,1.20
2023-05-08T14:14:34.648Z,1.30
2023-05-08T14:17:06.721Z,1.30
2023-05-08T14:19:37.055Z,1.50
2023-05-08T14:22:07.544Z,1.10
2023-05-08T14:24:37.853Z,1.50
2023-05-08T14:27:08.195Z,1.60
2023-05-08T14:29:38.516Z,1.50
2023-05-08T14:32:09.370Z,1.80
2023-05-08T14:34:39.715Z,1.50
2023-05-08T14:37:10.123Z,1.90
2023-05-08T14:39:40.537Z,1.70
2023-05-08T14:44:44.138Z,1.80
2023-05-08T14:47:14.507Z,1.30
2023-05-08T14:49:44.785Z,1.60
2023-05-08T14:52:15.129Z,1.50
2023-05-08T14:54:48.023Z,1.60
2023-05-08T14:57:18.770Z,1.40
2023-05-08T14:59:54.621Z,1.20
2023-05-08T15:02:25.964Z,1.30
2023-05-08T15:04:56.329Z,1.10
2023-05-08T15:07:26.706Z,1.20
2023-05-08T15:09:57.111Z,1.10
2023-05-08T15:12:27.504Z,1.40
2023-05-08T15:14:57.802Z,1.10
2023-05-08T15:17:28.175Z,1.10
2023-05-08T15:19:58.548Z,1.00
2023-05-08T15:22:28.974Z,1.30
2023-05-08T15:25:02.500Z,1.30
2023-05-08T15:27:33.228Z,1.00
2023-05-08T15:30:03.710Z,1.30
2023-05-08T15:32:35.014Z,1.30
2023-05-08T15:35:05.927Z,1.20
2023-05-08T15:37:37.346Z,1.50
2023-05-08T15:40:09.644Z,1.40
2023-05-08T15:42:39.941Z,1.40
2023-05-08T15:45:11.871Z,1.10
2023-05-08T15:47:42.634Z,1.30
2023-05-08T15:50:14.543Z,1.30
2023-05-08T15:52:44.891Z,1.50
2023-05-08T15:55:15.497Z,1.40
2023-05-08T15:57:46.176Z,1.40
2023-05-08T16:00:18.391Z,1.40
2023-05-08T16:02:48.740Z,1.10
2023-05-08T16:05:19.519Z,1.30
2023-05-08T16:07:51.589Z,1.70
2023-05-08T16:10:22.335Z,1.20
2023-05-08T16:12:52.732Z,1.30
2023-05-08T16:15:23.179Z,1.40
2023-05-08T16:17:53.502Z,1.30
2023-05-08T16:20:24.366Z,1.30
2023-05-08T16:22:56.989Z,1.40
2023-05-08T16:25:27.978Z,1.20
2023-05-08T16:27:58.761Z,1.00
2023-05-08T16:30:29.272Z,1.70
2023-05-08T16:32:59.740Z,1.40
2023-05-08T16:35:30.798Z,1.60
2023-05-08T16:38:02.939Z,1.30
2023-05-08T16:40:33.464Z,1.50
2023-05-08T16:43:03.908Z,1.60
2023-05-08T16:45:35.390Z,1.40
2023-05-08T16:48:06.101Z,1.20
2023-05-08T16:50:36.516Z,1.60
2023-05-08T16:53:06.880Z,1.20
2023-05-08T16:55:37.168Z,1.40
2023-05-08T16:58:07.837Z,1.60
2023-05-08T17:00:38.254Z,1.40
2023-05-08T17:03:08.681Z,1.50
2023-05-08T17:05:39.554Z,1.50
2023-05-08T17:08:11.811Z,1.80
2023-05-08T17:10:42.286Z,1.50
2023-05-08T17:13:12.600Z,1.50
2023-05-08T17:15:42.919Z,1.30
2023-05-08T17:18:13.245Z,1.40
2023-05-08T17:20:43.797Z,1.70
2023-05-08T17:23:14.167Z,1.50
2023-05-08T17:25:44.526Z,1.60
2023-05-08T17:28:15.181Z,1.50
2023-05-08T17:30:46.455Z,1.30
2023-05-08T17:33:17.513Z,1.40
2023-05-08T17:35:48.254Z,1.60
2023-05-08T17:38:18.595Z,1.60
2023-05-08T17:40:48.997Z,1.40
2023-05-08T17:43:20.713Z,1.40
2023-05-08T17:45:51.345Z,1.60
2023-05-08T17:48:22.066Z,1.60
2023-05-08T17:50:52.647Z,1.60
2023-05-08T17:53:22.925Z,1.60
2023-05-08T17:55:54.386Z,1.70
2023-05-08T17:58:25.084Z,1.40
2023-05-08T18:00:56.106Z,1.50
2023-05-08T18:03:26.640Z,1.30
2023-05-08T18:05:56.983Z,1.30
2023-05-08T18:08:27.332Z,1.40
2023-05-08T18:10:57.692Z,1.50
2023-05-08T18:13:28.091Z,1.70
2023-05-08T18:15:58.476Z,1.80
2023-05-08T18:18:28.873Z,1.50
2023-05-08T18:20:59.207Z,1.40
2023-05-08T18:23:29.610Z,1.50
2023-05-08T18:26:00.005Z,1.70
2023-05-08T18:28:30.785Z,1.30
2023-05-08T18:31:01.172Z,1.50
2023-05-08T18:33:31.477Z,1.90
2023-05-08T18:36:01.739Z,1.40
2023-05-08T18:38:33.123Z,1.60
2023-05-08T18:41:05.109Z,1.80
2023-05-08T18:43:35.459Z,1.60
2023-05-08T18:46:12.420Z,2.10
2023-05-08T18:48:43.470Z,1.80
2023-05-08T18:51:13.839Z,1.60
2023-05-08T18:53:44.171Z,2.00
2023-05-08T18:56:14.472Z,1.70
2023-05-08T18:58:44.902Z,2.30
2023-05-08T19:01:20.035Z,2.30
2023-05-08T19:03:50.907Z,2.10
2023-05-08T19:06:21.445Z,2.00
2023-05-08T19:08:52.614Z,2.10
2023-05-08T19:11:22.987Z,2.20
2023-05-08T19:13:53.366Z,2.30
2023-05-08T19:16:23.848Z,2.80
2023-05-08T19:18:54.272Z,2.60
2023-05-08T19:21:24.676Z,2.10
2023-05-08T19:23:54.973Z,2.40
2023-05-08T19:26:26.459Z,1.80
2023-05-08T19:28:56.779Z,2.10
2023-05-08T19:31:27.393Z,2.20
2023-05-08T19:33:58.192Z,1.90
2023-05-08T19:36:28.622Z,2.10
2023-05-08T19:38:58.928Z,2.50
2023-05-08T19:41:29.251Z,2.30
2023-05-08T19:43:59.627Z,2.50
2023-05-08T19:46:30.152Z,2.50
2023-05-08T19:49:00.428Z,2.50
2023-05-08T19:51:30.721Z,2.80
2023-05-08T19:54:01.079Z,2.60
2023-05-08T19:56:31.434Z,3.00
2023-05-08T19:59:01.837Z,3.30
2023-05-08T20:01:32.172Z,3.30
2023-05-08T20:04:02.804Z,3.20
2023-05-08T20:06:33.459Z,3.40
2023-05-08T20:09:03.740Z,3.10
2023-05-08T20:11:34.055Z,3.60
2023-05-08T20:14:04.433Z,3.60
2023-05-08T20:16:34.727Z,3.70
2023-05-08T20:19:05.151Z,3.60
2023-05-08T20:21:35.470Z,3.60
2023-05-08T20:24:07.003Z,3.10
2023-05-08T20:26:37.494Z,3.30
2023-05-08T20:29:07.776Z,3.40
2023-05-08T20:31:38.234Z,4.00
2023-05-08T20:34:08.753Z,2.80
2023-05-08T20:36:39.337Z,2.90
2023-05-08T20:39:09.804Z,3.20
2023-05-08T20:41:40.214Z,3.00
2023-05-08T20:44:12.305Z,2.70
2023-05-08T20:46:42.764Z,2.30
2023-05-08T20:49:13.056Z,2.90
2023-05-08T20:51:43.434Z,2.50
2023-05-08T20:54:13.766Z,2.90
2023-05-08T20:56:44.068Z,2.20
2023-05-08T20:59:16.671Z,2.90
2023-05-08T21:01:47.388Z,3.20
2023-05-08T21:04:17.982Z,3.00
2023-05-08T21:06:50.222Z,2.80
2023-05-08T21:09:21.860Z,2.70
2023-05-08T21:11:52.194Z,3.10
2023-05-08T21:14:22.586Z,2.90
2023-05-08T21:16:54.186Z,3.20
2023-05-08T21:19:24.851Z,3.10
2023-05-08T21:21:55.481Z,3.30
2023-05-08T21:24:26.282Z,3.70
2023-05-08T21:26:57.483Z,3.60
2023-05-08T21:29:27.795Z,3.70
2023-05-08T21:31:58.170Z,3.90
2023-05-08T21:34:28.934Z,4.10
2023-05-08T21:36:59.291Z,3.60
2023-05-08T21:39:29.615Z,3.50
2023-05-08T21:41:59.905Z,3.80
2023-05-08T21:44:30.232Z,4.10
2023-05-08T21:47:00.578Z,3.80
2023-05-08T21:49:30.879Z,4.10
2023-05-08T21:52:01.208Z,3.90
2023-05-08T21:54:31.544Z,4.00
2023-05-08T21:57:01.975Z,3.40
2023-05-08T21:59:32.245Z,3.60
2023-05-08T22:02:03.238Z,3.80
2023-05-08T22:04:33.804Z,3.80
2023-05-08T22:07:04.099Z,3.60
2023-05-08T22:09:35.751Z,3.00
2023-05-08T22:12:08.237Z,3.80
2023-05-08T22:14:38.644Z,3.80
2023-05-08T22:17:09.016Z,3.90
2023-05-08T22:19:39.317Z,5.40
2023-05-08T22:22:09.687Z,6.00
2023-05-08T22:24:40.104Z,5.30
2023-05-08T22:27:10.410Z,5.00
2023-05-08T22:29:40.691Z,4.20
2023-05-08T22:32:11.072Z,4.30
2023-05-08T22:34:41.542Z,3.80
2023-05-08T22:37:11.903Z,3.50
2023-05-08T22:39:42.168Z,3.40
2023-05-08T22:42:12.891Z,2.70
2023-05-08T22:44:44.026Z,3.10
2023-05-08T22:47:14.863Z,3.40
2023-05-08T22:49:46.484Z,2.60
2023-05-08T22:52:17.069Z,2.50
2023-05-08T22:54:47.332Z,2.30
2023-05-08T22:57:17.644Z,2.40
2023-05-08T22:59:47.892Z,2.60
2023-05-08T23:02:18.275Z,2.20
2023-05-08T23:04:48.881Z,2.30
2023-05-08T23:07:19.416Z,2.20
2023-05-08T23:09:49.721Z,2.40
2023-05-08T23:12:20.472Z,2.40
2023-05-08T23:14:50.861Z,2.30
2023-05-08T23:17:21.188Z,2.80
2023-05-08T23:19:51.509Z,2.30
2023-05-08T23:22:21.846Z,2.70
2023-05-08T23:24:52.197Z,2.90
2023-05-08T23:27:22.571Z,2.60
2023-05-08T23:29:52.986Z,2.40
2023-05-08T23:32:23.367Z,2.10
2023-05-08T23:34:53.700Z,2.60
2023-05-08T23:37:23.969Z,2.90
2023-05-08T23:39:54.295Z,2.60
2023-05-08T23:42:24.611Z,2.70
2023-05-08T23:44:55.245Z,3.10
2023-05-08T23:47:25.790Z,3.50
2023-05-08T23:49:56.171Z,3.30
2023-05-08T23:52:26.911Z,2.90
2023-05-08T23:54:57.233Z,3.00
2023-05-08T23:57:28.871Z,3.10
2023-05-08T23:59:59.192Z,2.50
